createdAt,value
2019-04-04T00:46:19.344Z,14.60
2019-04-04T00:47:19.274Z,11.39
2019-04-04T00:48:19.227Z,8.50
2019-04-04T00:49:19.199Z,11.10
2019-04-04T00:50:19.182Z,8.00
2019-04-04T00:51:19.327Z,9.60
2019-04-04T00:52:19.150Z,8.60
2019-04-04T00:53:19.095Z,10.80
2019-04-04T00:54:19.082Z,13.19
2019-04-04T00:55:19.071Z,12.39
2019-04-04T00:56:19.062Z,10.19
2019-04-04T00:57:19.495Z,10.80
2019-04-04T00:58:20.807Z,11.19
2019-04-04T00:59:19.029Z,11.19
2019-04-04T01:00:19.019Z,10.60
2019-04-04T01:01:19.011Z,10.00
2019-04-04T01:02:18.999Z,14.30
2019-04-04T01:03:19.087Z,15.00
2019-04-04T01:04:18.978Z,12.00
2019-04-04T01:05:18.965Z,13.19
2019-04-04T01:06:18.958Z,11.19
2019-04-04T01:07:18.943Z,10.30
2019-04-04T01:08:18.934Z,6.59
2019-04-04T01:09:19.079Z,11.30
2019-04-04T01:10:19.555Z,12.39
2019-04-04T01:11:20.324Z,11.00
2019-04-04T01:12:21.482Z,10.50
2019-04-04T01:13:18.885Z,12.60
2019-04-04T01:14:18.866Z,13.60
2019-04-04T01:15:18.958Z,15.30
2019-04-04T01:16:18.847Z,11.30
2019-04-04T01:17:18.836Z,13.10
2019-04-04T01:18:18.825Z,14.69
2019-04-04T01:19:18.814Z,13.10
2019-04-04T01:20:20.294Z,13.10
2019-04-04T01:21:20.167Z,13.00
2019-04-04T01:22:18.781Z,16.29
2019-04-04T01:23:18.770Z,17.29
2019-04-04T01:24:18.761Z,17.70
2019-04-04T01:25:18.750Z,19.70
2019-04-04T01:26:18.738Z,18.29
2019-04-04T01:27:18.977Z,13.60
2019-04-04T01:28:18.720Z,21.60
2019-04-04T01:29:18.707Z,12.80
2019-04-04T01:30:18.698Z,17.60
2019-04-04T01:31:18.685Z,17.70
2019-04-04T01:32:18.674Z,15.60
2019-04-04T01:33:19.961Z,15.89
2019-04-04T01:34:18.794Z,15.69
2019-04-04T01:35:18.646Z,17.29
2019-04-04T01:36:18.632Z,13.80
2019-04-04T01:37:18.619Z,17.29
2019-04-04T01:38:18.608Z,17.00
2019-04-04T01:39:18.699Z,17.10
2019-04-04T01:40:18.590Z,15.00
2019-04-04T01:41:18.579Z,15.30
2019-04-04T01:42:18.566Z,15.80
2019-04-04T01:43:18.556Z,11.39
2019-04-04T01:44:18.545Z,14.89
2019-04-04T01:45:18.733Z,13.39
2019-04-04T01:46:18.523Z,13.39
2019-04-04T01:47:18.514Z,16.00
2019-04-04T01:48:19.275Z,12.60
2019-04-04T01:49:19.150Z,14.19
2019-04-04T01:50:18.492Z,14.50
2019-04-04T01:51:18.571Z,19.20
2019-04-04T01:52:18.463Z,16.70
2019-04-04T01:53:18.449Z,13.69
2019-04-04T01:54:18.440Z,17.79
2019-04-04T01:55:18.426Z,15.50
2019-04-04T01:56:18.419Z,16.29
2019-04-04T01:57:18.508Z,13.69
2019-04-04T01:58:18.393Z,13.60
2019-04-04T01:59:18.385Z,15.39
2019-04-04T02:00:18.376Z,15.00
2019-04-04T02:01:18.361Z,16.79
2019-04-04T02:02:18.611Z,17.20
2019-04-04T02:03:18.493Z,12.39
2019-04-04T02:04:18.333Z,23.39
2019-04-04T02:05:18.321Z,17.00
2019-04-04T02:06:18.314Z,19.60
2019-04-04T02:07:18.299Z,14.89
2019-04-04T02:08:18.286Z,22.70
2019-04-04T02:09:18.377Z,25.39
2019-04-04T02:10:18.271Z,23.89
2019-04-04T02:11:18.256Z,18.29
2019-04-04T02:12:18.248Z,18.39
2019-04-04T02:13:18.240Z,13.39
2019-04-04T02:14:19.595Z,18.70
2019-04-04T02:15:18.322Z,15.00
2019-04-04T02:16:18.207Z,26.29
2019-04-04T02:17:18.197Z,18.00
2019-04-04T02:18:18.190Z,22.50
2019-04-04T02:19:18.175Z,31.20
2019-04-04T02:20:18.165Z,26.60
2019-04-04T02:21:18.355Z,36.00
2019-04-04T02:22:18.145Z,35.09
2019-04-04T02:23:18.137Z,34.50
2019-04-04T02:24:18.121Z,32.00
2019-04-04T02:25:18.115Z,28.29
2019-04-04T02:26:18.104Z,33.40
2019-04-04T02:27:18.193Z,29.89
2019-04-04T02:28:18.084Z,24.50
2019-04-04T02:29:18.077Z,33.70
2019-04-04T02:30:18.066Z,33.90
2019-04-04T02:31:20.740Z,37.40
2019-04-04T02:32:18.044Z,28.89
2019-04-04T02:33:18.134Z,36.09
2019-04-04T02:34:18.022Z,38.20
2019-04-04T02:35:18.011Z,38.40
2019-04-04T02:36:18.000Z,44.20
2019-04-04T02:37:20.821Z,24.70
2019-04-04T02:38:17.985Z,50.50
2019-04-04T02:39:18.222Z,37.70
2019-04-04T02:40:17.961Z,47.00
2019-04-04T02:41:17.956Z,43.59
2019-04-04T02:42:21.121Z,38.40
2019-04-04T02:43:17.926Z,37.70
2019-04-04T02:44:17.916Z,39.20
2019-04-04T02:45:18.009Z,60.40
2019-04-04T02:46:17.894Z,44.00
2019-04-04T02:47:18.352Z,42.09
2019-04-04T02:48:17.872Z,40.40
2019-04-04T02:49:17.859Z,34.00
2019-04-04T02:50:17.849Z,32.29
2019-04-04T02:51:17.937Z,41.29
2019-04-04T02:52:17.826Z,35.50
2019-04-04T02:53:20.316Z,32.29
2019-04-04T02:54:17.804Z,40.70
2019-04-04T02:55:17.796Z,38.00
2019-04-04T02:56:17.785Z,31.39
2019-04-04T02:57:18.094Z,28.29
2019-04-04T02:58:17.765Z,34.09
2019-04-04T02:59:21.587Z,33.00
2019-04-04T03:00:17.755Z,41.29
2019-04-04T03:01:17.732Z,34.79
2019-04-04T03:02:17.721Z,42.09
2019-04-04T03:03:17.821Z,36.09
2019-04-04T03:04:17.698Z,45.00
2019-04-04T03:05:19.278Z,43.29
2019-04-04T03:06:17.677Z,35.29
2019-04-04T03:07:17.668Z,37.00
2019-04-04T03:08:17.659Z,49.29
2019-04-04T03:09:17.752Z,46.29
2019-04-04T03:10:17.641Z,48.70
2019-04-04T03:11:21.200Z,48.70
2019-04-04T03:12:17.626Z,60.90
2019-04-04T03:13:17.611Z,57.59
2019-04-04T03:14:17.602Z,44.59
2019-04-04T03:15:17.789Z,51.29
2019-04-04T03:16:21.009Z,48.40
2019-04-04T03:17:17.574Z,49.90
2019-04-04T03:18:17.557Z,59.29
2019-04-04T03:19:17.551Z,48.79
2019-04-04T03:20:17.722Z,44.59
2019-04-04T03:21:22.030Z,47.40
2019-04-04T03:22:17.518Z,42.00
2019-04-04T03:23:17.541Z,39.90
2019-04-04T03:24:17.528Z,35.90
2019-04-04T03:25:17.517Z,42.70
2019-04-04T03:26:20.184Z,38.09
2019-04-04T03:27:17.565Z,34.20
2019-04-04T03:28:17.451Z,33.50
2019-04-04T03:29:17.444Z,42.90
2019-04-04T03:30:17.784Z,32.09
2019-04-04T03:31:17.419Z,27.39
2019-04-04T03:32:17.700Z,31.20
2019-04-04T03:33:17.565Z,33.29
2019-04-04T03:34:17.400Z,28.60
2019-04-04T03:35:17.386Z,25.89
2019-04-04T03:36:17.370Z,23.50
2019-04-04T03:37:17.358Z,30.60
2019-04-04T03:38:17.349Z,29.50
2019-04-04T03:39:19.699Z,27.50
2019-04-04T03:40:17.341Z,28.39
2019-04-04T03:41:17.333Z,28.00
2019-04-04T03:42:17.309Z,31.29
2019-04-04T03:43:17.303Z,29.20
2019-04-04T03:44:19.550Z,26.29
2019-04-04T03:45:17.386Z,29.50
2019-04-04T03:46:17.289Z,31.00
2019-04-04T03:47:17.264Z,32.29
2019-04-04T03:48:18.575Z,27.60
2019-04-04T03:49:17.250Z,35.50
2019-04-04T03:50:17.231Z,39.00
2019-04-04T03:51:17.372Z,37.79
2019-04-04T03:52:17.210Z,28.50
2019-04-04T03:53:17.697Z,24.79
2019-04-04T03:54:17.205Z,28.10
2019-04-04T03:55:17.178Z,36.50
2019-04-04T03:56:17.173Z,42.20
2019-04-04T03:57:17.301Z,35.00
2019-04-04T03:58:17.150Z,38.50
2019-04-04T03:59:17.142Z,31.20
2019-04-04T04:00:17.131Z,38.40
2019-04-04T04:01:17.118Z,35.09
2019-04-04T04:02:18.544Z,35.50
2019-04-04T04:03:17.204Z,28.39
2019-04-04T04:04:17.095Z,29.79
2019-04-04T04:05:17.079Z,34.09
2019-04-04T04:06:17.070Z,28.39
2019-04-04T04:07:17.063Z,31.00
2019-04-04T04:08:20.942Z,22.89
2019-04-04T04:09:17.239Z,32.20
2019-04-04T04:10:17.027Z,24.50
2019-04-04T04:11:17.026Z,23.39
2019-04-04T04:12:17.007Z,24.79
2019-04-04T04:13:17.575Z,21.70
2019-04-04T04:14:16.990Z,26.50
2019-04-04T04:15:17.075Z,24.50
2019-04-04T04:16:16.961Z,25.20
2019-04-04T04:17:17.000Z,20.20
2019-04-04T04:18:20.311Z,19.60
2019-04-04T04:19:16.935Z,23.29
2019-04-04T04:20:16.924Z,18.60
2019-04-04T04:21:17.012Z,18.39
2019-04-04T04:22:19.306Z,16.60
2019-04-04T04:23:16.904Z,19.20
2019-04-04T04:24:16.879Z,18.50
2019-04-04T04:25:16.885Z,18.60
2019-04-04T04:26:16.863Z,24.70
2019-04-04T04:27:17.004Z,18.70
2019-04-04T04:28:19.754Z,16.70
2019-04-04T04:29:16.828Z,19.39
2019-04-04T04:30:16.828Z,13.80
2019-04-04T04:31:16.813Z,16.29
2019-04-04T04:32:21.295Z,16.29
2019-04-04T04:33:16.887Z,21.60
2019-04-04T04:34:16.774Z,20.00
2019-04-04T04:35:16.768Z,12.50
2019-04-04T04:36:16.820Z,13.10
2019-04-04T04:37:19.834Z,10.30
2019-04-04T04:38:16.737Z,15.60
2019-04-04T04:39:16.773Z,12.80
2019-04-04T04:40:16.721Z,11.69
2019-04-04T04:41:19.937Z,15.50
2019-04-04T04:42:16.696Z,11.19
2019-04-04T04:43:16.682Z,11.39
2019-04-04T04:44:16.674Z,11.89
2019-04-04T04:45:16.822Z,7.80
2019-04-04T04:46:17.866Z,5.59
2019-04-04T04:47:16.649Z,7.19
2019-04-04T04:48:16.656Z,8.00
2019-04-04T04:49:16.625Z,9.69
2019-04-04T04:50:16.611Z,9.69
2019-04-04T04:51:16.667Z,11.60
2019-04-04T04:52:16.597Z,8.19
2019-04-04T04:53:18.930Z,6.40
2019-04-04T04:54:16.581Z,7.09
2019-04-04T04:55:16.572Z,10.69
2019-04-04T04:56:17.599Z,8.30
2019-04-04T04:57:28.707Z,7.19
2019-04-04T04:58:17.633Z,7.19
2019-04-04T04:59:16.525Z,6.90
2019-04-04T05:00:16.798Z,6.19
2019-04-04T05:01:18.366Z,7.80
2019-04-04T05:02:16.494Z,5.80
2019-04-04T05:03:16.685Z,6.40
2019-04-04T05:04:16.479Z,7.09
2019-04-04T05:05:16.466Z,10.00
2019-04-04T05:06:16.458Z,7.90
2019-04-04T05:07:16.446Z,6.30
2019-04-04T05:08:16.437Z,5.30
2019-04-04T05:09:16.478Z,8.39
2019-04-04T05:10:16.421Z,7.19
2019-04-04T05:11:16.861Z,7.19
2019-04-04T05:12:16.396Z,6.59
2019-04-04T05:13:16.390Z,5.40
2019-04-04T05:14:16.375Z,7.19
2019-04-04T05:15:16.467Z,8.10
2019-04-04T05:16:16.359Z,7.30
2019-04-04T05:17:16.352Z,7.69
2019-04-04T05:18:17.094Z,7.90
2019-04-04T05:19:17.086Z,7.00
2019-04-04T05:20:16.317Z,7.80
2019-04-04T05:21:24.906Z,5.30
2019-04-04T05:22:41.117Z,6.00
2019-04-04T05:23:41.094Z,6.40
2019-04-04T05:24:41.086Z,7.19
2019-04-04T05:25:52.111Z,6.30
2019-04-04T05:27:06.729Z,7.09
2019-04-04T05:28:06.316Z,8.10
2019-04-04T05:29:05.931Z,6.40
2019-04-04T05:30:08.322Z,7.59
2019-04-04T05:31:05.881Z,7.19
2019-04-04T05:32:05.932Z,10.30
2019-04-04T05:33:05.879Z,8.10
2019-04-04T05:34:05.848Z,7.50
2019-04-04T05:35:05.866Z,9.30
2019-04-04T05:36:06.061Z,8.69
2019-04-04T05:37:07.279Z,5.59
2019-04-04T05:38:07.773Z,8.39
2019-04-04T05:39:05.798Z,8.60
2019-04-04T05:40:05.781Z,8.39
2019-04-04T05:41:05.775Z,7.00
2019-04-04T05:42:05.763Z,7.69
2019-04-04T05:43:05.799Z,11.00
2019-04-04T05:44:09.037Z,9.50
2019-04-04T05:45:05.730Z,8.30
2019-04-04T05:46:05.721Z,8.30
2019-04-04T05:47:05.711Z,9.60
2019-04-04T05:48:05.697Z,12.89
2019-04-04T05:49:07.734Z,10.80
2019-04-04T05:50:05.729Z,10.39
2019-04-04T05:51:05.665Z,11.30
2019-04-04T05:52:08.732Z,9.19
2019-04-04T05:53:05.663Z,10.60
2019-04-04T05:54:07.627Z,12.69
2019-04-04T05:55:05.632Z,11.19
2019-04-04T05:56:06.414Z,14.19
2019-04-04T05:57:05.606Z,8.69
2019-04-04T05:58:05.597Z,11.69
2019-04-04T05:59:05.584Z,13.60
2019-04-04T06:00:05.583Z,14.00
2019-04-04T06:01:05.566Z,11.69
2019-04-04T06:02:05.653Z,12.19
2019-04-04T06:03:05.559Z,12.89
2019-04-04T06:04:05.536Z,10.30
2019-04-04T06:05:05.544Z,13.69
2019-04-04T06:06:05.512Z,10.19
2019-04-04T06:07:05.546Z,10.60
2019-04-04T06:08:07.864Z,10.60
2019-04-04T06:09:05.517Z,9.39
2019-04-04T06:10:05.470Z,10.00
2019-04-04T06:11:05.460Z,10.10
2019-04-04T06:12:05.448Z,8.80
2019-04-04T06:13:05.441Z,11.80
2019-04-04T06:14:05.679Z,9.39
2019-04-04T06:15:05.416Z,10.50
2019-04-04T06:16:05.416Z,8.69
2019-04-04T06:17:07.226Z,11.50
2019-04-04T06:18:05.388Z,10.30
2019-04-04T06:19:05.377Z,12.89
2019-04-04T06:20:05.471Z,11.89
2019-04-04T06:21:05.354Z,11.00
2019-04-04T06:22:05.363Z,11.30
2019-04-04T06:23:05.334Z,13.69
2019-04-04T06:24:05.325Z,14.19
2019-04-04T06:25:05.311Z,13.50
2019-04-04T06:26:07.518Z,14.30
2019-04-04T06:27:06.987Z,16.00
2019-04-04T06:28:05.296Z,14.30
2019-04-04T06:29:05.779Z,17.20
2019-04-04T06:30:05.260Z,16.79
2019-04-04T06:31:05.252Z,16.70
2019-04-04T06:32:05.390Z,18.39
2019-04-04T06:33:05.228Z,16.50
2019-04-04T06:34:05.970Z,21.70
2019-04-04T06:35:05.209Z,18.60
2019-04-04T06:36:05.199Z,18.29
2019-04-04T06:37:05.186Z,15.10
2019-04-04T06:38:05.225Z,17.89
2019-04-04T06:39:05.163Z,15.69
2019-04-04T06:40:05.155Z,18.70
2019-04-04T06:41:05.142Z,14.80
2019-04-04T06:42:05.141Z,17.50
2019-04-04T06:43:10.780Z,14.60
2019-04-04T06:44:30.027Z,13.19
2019-04-04T06:45:30.020Z,12.80
2019-04-04T06:46:30.030Z,18.20
2019-04-04T06:47:32.274Z,17.29
2019-04-04T06:48:33.543Z,21.70
2019-04-04T06:49:30.129Z,17.60
2019-04-04T06:50:29.961Z,15.80
2019-04-04T06:51:29.961Z,15.19
2019-04-04T06:52:29.940Z,17.10
2019-04-04T06:53:29.933Z,19.00
2019-04-04T06:54:29.922Z,16.60
2019-04-04T06:55:30.010Z,14.69
2019-04-04T06:56:31.838Z,20.29
2019-04-04T06:57:29.893Z,20.89
2019-04-04T06:58:29.880Z,20.20
2019-04-04T06:59:29.875Z,15.69
2019-04-04T07:00:29.861Z,16.79
2019-04-04T07:01:29.903Z,15.69
2019-04-04T07:02:29.840Z,21.50
2019-04-04T07:03:29.829Z,17.89
2019-04-04T07:04:31.861Z,17.79
2019-04-04T07:05:29.809Z,18.29
2019-04-04T07:06:29.799Z,20.70
2019-04-04T07:07:29.936Z,16.10
2019-04-04T07:08:29.784Z,19.39
2019-04-04T07:09:29.767Z,22.50
2019-04-04T07:10:29.759Z,20.79
2019-04-04T07:11:29.748Z,18.89
2019-04-04T07:12:29.737Z,17.70
2019-04-04T07:13:41.360Z,18.39
2019-04-04T07:14:54.528Z,15.19
2019-04-04T07:16:06.181Z,13.50
2019-04-04T07:17:19.323Z,10.89
2019-04-04T07:18:19.310Z,10.39
2019-04-04T07:19:19.351Z,11.89
2019-04-04T07:20:19.293Z,12.89
2019-04-04T07:21:20.227Z,12.69
2019-04-04T07:22:20.634Z,14.50
2019-04-04T07:23:19.261Z,12.00
2019-04-04T07:24:19.246Z,15.00
2019-04-04T07:25:19.493Z,14.60
2019-04-04T07:26:19.227Z,12.89
2019-04-04T07:27:19.213Z,19.29
2019-04-04T07:28:19.732Z,17.89
2019-04-04T07:29:19.198Z,15.30
2019-04-04T07:30:19.186Z,12.50
2019-04-04T07:31:19.284Z,15.19
2019-04-04T07:32:19.167Z,16.70
2019-04-04T07:33:21.324Z,11.10
2019-04-04T07:34:19.153Z,14.10
2019-04-04T07:35:21.057Z,14.50
2019-04-04T07:36:20.176Z,13.19
2019-04-04T07:37:21.889Z,14.60
2019-04-04T07:38:19.107Z,15.60
2019-04-04T07:39:19.094Z,15.19
2019-04-04T07:40:20.364Z,11.80
2019-04-04T07:41:19.080Z,10.30
2019-04-04T07:42:19.061Z,10.69
2019-04-04T07:43:20.063Z,13.60
2019-04-04T07:44:19.044Z,12.00
2019-04-04T07:45:19.035Z,12.50
2019-04-04T07:46:19.021Z,15.00
2019-04-04T07:47:19.012Z,15.19
2019-04-04T07:48:19.000Z,13.60
2019-04-04T07:49:19.093Z,12.39
2019-04-04T07:50:18.980Z,11.69
2019-04-04T07:51:18.972Z,15.80
2019-04-04T07:52:19.019Z,14.00
2019-04-04T07:53:18.948Z,11.00
2019-04-04T07:54:18.939Z,14.00
2019-04-04T07:55:19.031Z,14.10
2019-04-04T07:56:18.920Z,15.00
2019-04-04T07:57:19.729Z,16.39
2019-04-04T07:58:18.900Z,15.19
2019-04-04T07:59:18.889Z,12.60
2019-04-04T08:00:18.977Z,14.19
2019-04-04T08:01:18.872Z,12.89
2019-04-04T08:02:18.864Z,15.10
2019-04-04T08:03:18.846Z,19.29
2019-04-04T08:04:18.839Z,19.70
2019-04-04T08:05:18.826Z,14.39
2019-04-04T08:06:18.927Z,17.20
2019-04-04T08:07:18.805Z,16.00
2019-04-04T08:08:18.862Z,14.60
2019-04-04T08:09:18.788Z,13.50
2019-04-04T08:10:20.727Z,12.00
2019-04-04T08:11:18.769Z,15.60
2019-04-04T08:12:18.856Z,19.89
2019-04-04T08:13:18.752Z,17.00
2019-04-04T08:14:18.735Z,15.10
2019-04-04T08:15:18.726Z,15.19
2019-04-04T08:16:18.714Z,16.60
2019-04-04T08:17:19.231Z,16.79
2019-04-04T08:18:18.696Z,18.20
2019-04-04T08:19:18.684Z,21.70
2019-04-04T08:20:18.673Z,18.00
2019-04-04T08:21:18.664Z,14.30
2019-04-04T08:22:18.721Z,15.19
2019-04-04T08:23:18.752Z,12.30
2019-04-04T08:24:18.635Z,18.29
2019-04-04T08:25:18.639Z,17.70
2019-04-04T08:26:18.621Z,15.69
2019-04-04T08:27:18.597Z,26.79
2019-04-04T08:28:18.588Z,16.79
2019-04-04T08:29:18.682Z,15.80
2019-04-04T08:30:18.569Z,17.89
2019-04-04T08:31:18.560Z,17.70
2019-04-04T08:32:18.557Z,18.39
2019-04-04T08:33:18.542Z,14.50
2019-04-04T08:34:18.533Z,21.39
2019-04-04T08:35:18.728Z,17.00
2019-04-04T08:36:18.508Z,15.50
2019-04-04T08:37:18.499Z,17.50
2019-04-04T08:38:18.493Z,16.79
2019-04-04T08:39:18.481Z,20.50
2019-04-04T08:40:18.468Z,15.39
2019-04-04T08:41:18.559Z,13.89
2019-04-04T08:42:18.446Z,16.70
2019-04-04T08:43:18.440Z,17.00
2019-04-04T08:44:18.427Z,12.69
2019-04-04T08:45:18.414Z,17.29
2019-04-04T08:46:20.056Z,16.20
2019-04-04T08:47:18.500Z,16.00
2019-04-04T08:48:18.386Z,14.39
2019-04-04T08:49:18.379Z,16.39
2019-04-04T08:50:18.365Z,16.39
2019-04-04T08:51:18.355Z,15.80
2019-04-04T08:52:20.815Z,17.50
2019-04-04T08:53:18.528Z,13.60
2019-04-04T08:54:18.321Z,19.29
2019-04-04T08:55:18.318Z,17.39
2019-04-04T08:56:18.300Z,13.30
2019-04-04T08:57:18.295Z,15.39
2019-04-04T08:58:18.379Z,16.50
2019-04-04T08:59:18.281Z,17.89
2019-04-04T09:00:18.263Z,14.69
2019-04-04T09:01:18.249Z,11.80
2019-04-04T09:02:18.237Z,13.69
2019-04-04T09:03:18.233Z,16.70
2019-04-04T09:04:18.315Z,22.00
2019-04-04T09:05:18.212Z,18.29
2019-04-04T09:06:18.200Z,15.69
2019-04-04T09:07:18.191Z,18.79
2019-04-04T09:08:18.176Z,12.60
2019-04-04T09:09:18.171Z,14.50
2019-04-04T09:10:18.355Z,19.10
2019-04-04T09:11:18.146Z,21.89
2019-04-04T09:12:18.131Z,13.80
2019-04-04T09:13:18.125Z,16.00
2019-04-04T09:14:18.124Z,12.60
2019-04-04T09:15:18.104Z,20.20
2019-04-04T09:16:18.140Z,13.89
2019-04-04T09:17:18.084Z,13.39
2019-04-04T09:18:18.073Z,18.10
2019-04-04T09:19:18.060Z,14.80
2019-04-04T09:20:18.054Z,16.89
2019-04-04T09:21:18.044Z,14.60
2019-04-04T09:22:18.135Z,15.50
2019-04-04T09:23:18.021Z,19.00
2019-04-04T09:24:18.013Z,21.00
2019-04-04T09:25:18.001Z,17.60
2019-04-04T09:26:17.990Z,20.29
2019-04-04T09:27:17.978Z,14.80
2019-04-04T09:28:18.122Z,16.20
2019-04-04T09:29:17.960Z,17.20
2019-04-04T09:30:17.950Z,15.39
2019-04-04T09:31:17.942Z,18.29
2019-04-04T09:32:17.928Z,16.79
2019-04-04T09:33:20.852Z,17.39
2019-04-04T09:34:17.917Z,20.79
2019-04-04T09:35:17.899Z,16.79
2019-04-04T09:36:17.888Z,16.50
2019-04-04T09:37:17.879Z,16.89
2019-04-04T09:38:17.870Z,21.50
2019-04-04T09:39:17.962Z,16.00
2019-04-04T09:40:17.849Z,15.80
2019-04-04T09:41:17.843Z,19.20
2019-04-04T09:42:17.829Z,19.10
2019-04-04T09:43:17.816Z,17.29
2019-04-04T09:44:18.010Z,17.20
2019-04-04T09:45:17.802Z,16.20
2019-04-04T09:46:17.786Z,15.89
2019-04-04T09:47:17.778Z,18.10
2019-04-04T09:48:17.765Z,16.39
2019-04-04T09:49:17.753Z,18.70
2019-04-04T09:50:17.848Z,23.29
2019-04-04T09:51:17.737Z,17.70
2019-04-04T09:52:17.726Z,13.80
2019-04-04T09:53:17.711Z,17.70
2019-04-04T09:54:19.329Z,18.00
2019-04-04T09:55:17.947Z,16.20
2019-04-04T09:56:17.681Z,17.70
2019-04-04T09:57:17.674Z,22.79
2019-04-04T09:58:17.663Z,16.10
2019-04-04T09:59:17.653Z,18.20
2019-04-04T10:00:17.642Z,15.10
2019-04-04T10:01:17.733Z,18.39
2019-04-04T10:02:17.663Z,21.20
2019-04-04T10:03:17.610Z,15.19
2019-04-04T10:04:17.633Z,20.10
2019-04-04T10:05:17.591Z,18.79
2019-04-04T10:06:17.580Z,16.10
2019-04-04T10:07:17.664Z,17.00
2019-04-04T10:08:17.558Z,20.29
2019-04-04T10:09:17.554Z,18.20
2019-04-04T10:10:17.543Z,16.10
2019-04-04T10:11:17.679Z,18.60
2019-04-04T10:12:17.568Z,14.50
2019-04-04T10:13:17.506Z,14.30
2019-04-04T10:14:17.491Z,17.50
2019-04-04T10:15:17.560Z,15.60
2019-04-04T10:16:17.475Z,15.10
2019-04-04T10:17:17.667Z,15.80
2019-04-04T10:18:17.454Z,17.89
2019-04-04T10:19:17.450Z,19.89
2019-04-04T10:20:17.431Z,15.89
2019-04-04T10:21:17.422Z,18.60
2019-04-04T10:22:17.411Z,25.39
2019-04-04T10:23:17.504Z,24.89
2019-04-04T10:24:17.387Z,24.10
2019-04-04T10:25:17.381Z,20.20
2019-04-04T10:26:17.414Z,18.89
2019-04-04T10:27:17.360Z,14.60
2019-04-04T10:28:17.347Z,16.29
2019-04-04T10:29:17.439Z,19.00
2019-04-04T10:30:17.326Z,17.00
2019-04-04T10:31:17.315Z,16.70
2019-04-04T10:32:17.306Z,18.79
2019-04-04T10:33:17.295Z,17.70
2019-04-04T10:34:17.283Z,17.29
2019-04-04T10:35:17.478Z,19.79
2019-04-04T10:36:17.269Z,18.10
2019-04-04T10:37:17.252Z,17.50
2019-04-04T10:38:17.241Z,21.50
2019-04-04T10:39:28.208Z,18.29
2019-04-04T10:40:42.132Z,18.79
2019-04-04T10:41:42.022Z,19.39
2019-04-04T10:42:42.009Z,17.29
2019-04-04T10:43:42.005Z,13.80
2019-04-04T10:44:41.987Z,16.39
2019-04-04T10:45:41.979Z,13.10
2019-04-04T10:46:42.069Z,17.89
2019-04-04T10:47:41.958Z,21.10
2019-04-04T10:48:41.948Z,18.60
2019-04-04T10:49:41.934Z,17.70
2019-04-04T10:50:41.926Z,17.39
2019-04-04T10:51:41.918Z,18.70
2019-04-04T10:52:42.106Z,18.10
2019-04-04T10:53:41.892Z,18.39
2019-04-04T10:54:41.880Z,18.39
2019-04-04T10:55:41.872Z,20.10
2019-04-04T10:56:41.861Z,20.70
2019-04-04T10:57:41.853Z,16.50
2019-04-04T10:58:42.737Z,21.29
2019-04-04T10:59:41.835Z,18.60
2019-04-04T11:00:41.822Z,18.29
2019-04-04T11:01:41.813Z,18.39
2019-04-04T11:02:42.350Z,16.89
2019-04-04T11:03:41.785Z,19.60
2019-04-04T11:04:41.829Z,15.30
2019-04-04T11:05:41.767Z,17.89
2019-04-04T11:06:41.752Z,20.89
2019-04-04T11:07:41.746Z,19.60
2019-04-04T11:08:41.738Z,16.29
2019-04-04T11:09:42.481Z,14.60
2019-04-04T11:10:41.761Z,21.79
2019-04-04T11:11:41.706Z,16.70
2019-04-04T11:12:41.691Z,14.39
2019-04-04T11:13:41.683Z,20.79
2019-04-04T11:14:41.672Z,14.89
2019-04-04T11:15:41.861Z,21.10
2019-04-04T11:16:41.649Z,19.60
2019-04-04T11:17:41.636Z,16.60
2019-04-04T11:18:41.628Z,21.20
2019-04-04T11:19:43.350Z,17.70
2019-04-04T11:20:41.614Z,19.50
2019-04-04T11:21:41.649Z,22.60
2019-04-04T11:22:41.588Z,18.29
2019-04-04T11:23:41.584Z,21.39
2019-04-04T11:24:41.566Z,20.70
2019-04-04T11:25:41.559Z,21.00
2019-04-04T11:26:41.540Z,28.10
2019-04-04T11:27:41.588Z,22.29
2019-04-04T11:28:41.524Z,19.79
2019-04-04T11:29:41.512Z,22.50
2019-04-04T11:30:41.502Z,24.70
2019-04-04T11:31:41.491Z,20.70
2019-04-04T11:32:41.483Z,22.00
2019-04-04T11:33:41.721Z,18.39
2019-04-04T11:34:52.586Z,22.39
2019-04-04T11:36:06.266Z,19.00
2019-04-04T11:37:06.258Z,19.70
2019-04-04T11:38:06.244Z,20.50
2019-04-04T11:39:06.336Z,22.20
2019-04-04T11:40:06.252Z,17.39
2019-04-04T11:41:06.212Z,16.00
2019-04-04T11:42:06.205Z,19.00
2019-04-04T11:43:06.196Z,16.70
2019-04-04T11:44:06.183Z,16.50
2019-04-04T11:45:06.225Z,13.80
2019-04-04T11:46:06.163Z,16.39
2019-04-04T11:47:06.149Z,22.10
2019-04-04T11:48:06.140Z,19.60
2019-04-04T11:49:06.128Z,25.89
2019-04-04T11:50:06.118Z,21.60
2019-04-04T11:51:06.310Z,34.59
2019-04-04T11:52:06.096Z,26.60
2019-04-04T11:53:06.096Z,19.29
2019-04-04T11:54:06.077Z,23.29
2019-04-04T11:55:06.067Z,17.60
2019-04-04T11:56:06.060Z,14.89
2019-04-04T11:57:06.095Z,19.50
2019-04-04T11:58:06.035Z,29.79
2019-04-04T11:59:08.123Z,24.50
2019-04-04T12:00:06.012Z,30.70
2019-04-04T12:01:06.005Z,31.50
2019-04-04T12:02:06.000Z,31.70
2019-04-04T12:03:06.034Z,28.89
2019-04-04T12:04:05.977Z,28.70
2019-04-04T12:05:05.967Z,27.79
2019-04-04T12:06:05.952Z,28.79
2019-04-04T12:07:05.946Z,24.20
2019-04-04T12:08:05.930Z,31.29
2019-04-04T12:09:05.971Z,28.79
2019-04-04T12:10:07.685Z,25.39
2019-04-04T12:11:05.901Z,37.79
2019-04-04T12:12:05.890Z,27.10
2019-04-04T12:13:05.885Z,33.40
2019-04-04T12:14:05.868Z,35.79
2019-04-04T12:15:05.957Z,40.00
2019-04-04T12:16:05.847Z,43.79
2019-04-04T12:17:05.848Z,36.00
2019-04-04T12:18:05.825Z,40.20
2019-04-04T12:19:05.815Z,64.80
2019-04-04T12:20:06.006Z,47.29
2019-04-04T12:21:05.797Z,45.59
2019-04-04T12:22:05.784Z,43.79
2019-04-04T12:23:05.774Z,45.90
2019-04-04T12:24:05.766Z,36.29
2019-04-04T12:25:05.755Z,40.40
2019-04-04T12:26:05.843Z,40.00
2019-04-04T12:27:05.730Z,52.20
2019-04-04T12:28:05.722Z,49.29
2019-04-04T12:29:05.710Z,44.20
2019-04-04T12:30:05.701Z,46.40
2019-04-04T12:31:05.691Z,49.20
2019-04-04T12:32:05.778Z,48.79
2019-04-04T12:33:05.664Z,51.50
2019-04-04T12:34:05.655Z,52.79
2019-04-04T12:35:05.646Z,44.59
2019-04-04T12:36:05.637Z,41.29
2019-04-04T12:37:05.633Z,42.50
2019-04-04T12:38:05.868Z,40.50
2019-04-04T12:39:05.606Z,34.90
2019-04-04T12:40:05.595Z,31.60
2019-04-04T12:41:05.584Z,40.09
2019-04-04T12:42:05.572Z,39.40
2019-04-04T12:43:05.561Z,37.79
2019-04-04T12:44:05.596Z,40.40
2019-04-04T12:45:05.620Z,33.29
2019-04-04T12:46:05.528Z,47.79
2019-04-04T12:47:05.517Z,51.09
2019-04-04T12:48:05.507Z,39.59
2019-04-04T12:49:05.501Z,36.20
2019-04-04T12:50:05.534Z,35.40
2019-04-04T12:51:05.470Z,34.40
2019-04-04T12:52:05.463Z,38.20
2019-04-04T12:53:05.455Z,46.40
2019-04-04T12:54:05.441Z,35.00
2019-04-04T12:55:05.427Z,29.00
2019-04-04T12:56:05.578Z,28.20
2019-04-04T12:57:05.407Z,26.50
2019-04-04T12:58:05.396Z,27.20
2019-04-04T12:59:05.387Z,32.29
2019-04-04T13:00:05.380Z,34.90
2019-04-04T13:01:05.362Z,42.09
2019-04-04T13:02:05.452Z,23.29
2019-04-04T13:03:05.342Z,35.70
2019-04-04T13:04:05.329Z,26.29
2019-04-04T13:05:05.320Z,46.70
2019-04-04T13:06:05.309Z,45.50
2019-04-04T13:07:05.297Z,37.90
2019-04-04T13:08:05.338Z,35.90
2019-04-04T13:09:05.277Z,35.40
2019-04-04T13:10:11.342Z,27.00
2019-04-04T13:11:30.069Z,43.00
2019-04-04T13:12:30.059Z,38.40
2019-04-04T13:13:30.295Z,33.20
2019-04-04T13:14:30.041Z,26.29
2019-04-04T13:15:30.025Z,23.29
2019-04-04T13:16:30.017Z,26.39
2019-04-04T13:17:30.002Z,16.89
2019-04-04T13:18:29.991Z,27.50
2019-04-04T13:19:30.085Z,24.50
2019-04-04T13:20:29.972Z,34.29
2019-04-04T13:21:29.982Z,31.00
2019-04-04T13:22:29.947Z,28.00
2019-04-04T13:23:29.944Z,28.89
2019-04-04T13:24:29.932Z,23.79
2019-04-04T13:25:29.966Z,33.20
2019-04-04T13:26:29.909Z,29.89
2019-04-04T13:27:29.897Z,32.70
2019-04-04T13:28:29.882Z,36.20
2019-04-04T13:29:29.873Z,26.50
2019-04-04T13:30:29.867Z,24.50
2019-04-04T13:31:30.008Z,27.20
2019-04-04T13:32:29.846Z,28.70
2019-04-04T13:33:29.830Z,21.29
2019-04-04T13:34:29.823Z,29.60
2019-04-04T13:35:29.809Z,29.70
2019-04-04T13:36:29.802Z,22.79
2019-04-04T13:37:29.886Z,33.50
2019-04-04T13:38:29.781Z,31.29
2019-04-04T13:39:29.779Z,35.00
2019-04-04T13:40:29.755Z,39.20
2019-04-04T13:41:29.748Z,48.70
2019-04-04T13:42:29.733Z,33.50
2019-04-04T13:43:29.825Z,48.40